TAF LFOA
METAR LFOA
LFOA 280830Z AUTO 29010KT 9999 -RA OVC007 03/02 Q1002=
LFOA 280800Z AUTO 30009KT 9999 OVC008 03/02 Q1002=
LFOA 280730Z AUTO 30011KT 8000 -RA OVC008 03/02 Q1001=
LFOA 280700Z AUTO 30011KT 9999 -RA OVC008/// ///TCU 02/02 Q1001=
LFOA 280630Z AUTO 30014KT 9999 -DZ BKN008/// OVC013/// ///TCU 03/02 Q1001=
WC LFOA
WS LFOA
WV LFOA